createdAt,value
2023-05-29T00:01:42.487Z,4.88
2023-05-29T00:04:09.540Z,3.53
2023-05-29T00:09:05.172Z,3.28
2023-05-29T00:11:31.918Z,3.85
2023-05-29T00:13:58.619Z,3.28
2023-05-29T00:16:25.322Z,3.80
2023-05-29T00:18:54.875Z,3.15
2023-05-29T00:21:21.690Z,3.33
2023-05-29T00:23:48.898Z,3.22
2023-05-29T00:28:47.973Z,3.55
2023-05-29T00:31:14.856Z,3.05
2023-05-29T00:33:41.487Z,3.10
2023-05-29T00:36:09.268Z,4.07
2023-05-29T00:38:35.945Z,3.85
2023-05-29T00:41:03.736Z,3.50
2023-05-29T00:43:30.432Z,3.65
2023-05-29T00:45:57.120Z,2.85
2023-05-29T00:48:24.345Z,3.35
2023-05-29T00:53:19.390Z,3.67
2023-05-29T00:55:46.267Z,4.03
2023-05-29T00:58:12.890Z,3.40
2023-05-29T01:00:39.999Z,3.30
2023-05-29T01:05:36.996Z,3.60
2023-05-29T01:08:04.363Z,4.10
2023-05-29T01:10:32.335Z,3.33
2023-05-29T01:13:24.536Z,4.03
2023-05-29T01:16:12.057Z,3.60
2023-05-29T01:18:52.649Z,4.40
2023-05-29T01:21:56.860Z,3.70
2023-05-29T01:24:55.241Z,3.90
2023-05-29T01:27:26.471Z,3.80
2023-05-29T01:29:54.746Z,3.08
2023-05-29T01:32:22.272Z,3.80
2023-05-29T01:34:48.965Z,3.95
2023-05-29T01:37:15.593Z,3.17
2023-05-29T01:39:42.442Z,5.13
2023-05-29T01:42:09.780Z,2.72
2023-05-29T01:44:38.966Z,3.60
2023-05-29T01:47:07.083Z,3.33
2023-05-29T01:49:37.484Z,3.43
2023-05-29T01:52:04.512Z,3.90
2023-05-29T01:54:31.260Z,3.25
2023-05-29T01:56:58.526Z,5.80
2023-05-29T01:59:28.853Z,4.37
2023-05-29T02:01:55.735Z,4.37
2023-05-29T02:04:22.819Z,2.67
2023-05-29T02:06:49.485Z,3.15
2023-05-29T02:09:18.170Z,3.30
2023-05-29T02:11:46.739Z,4.33
2023-05-29T02:14:13.878Z,3.83
2023-05-29T02:16:42.211Z,3.65
2023-05-29T02:19:09.320Z,3.72
2023-05-29T02:21:39.417Z,4.60
2023-05-29T02:24:07.642Z,4.07
2023-05-29T02:26:35.033Z,2.78
2023-05-29T02:31:28.411Z,3.10
2023-05-29T02:33:55.081Z,4.00
2023-05-29T02:36:22.982Z,3.83
2023-05-29T02:38:52.520Z,3.75
2023-05-29T02:41:19.169Z,2.90
2023-05-29T02:43:45.767Z,4.35
2023-05-29T02:46:12.493Z,4.95
2023-05-29T02:48:39.247Z,4.05
2023-05-29T02:51:06.101Z,3.95
2023-05-29T02:53:32.758Z,3.55
2023-05-29T02:55:59.564Z,4.10
2023-05-29T02:58:26.175Z,4.22
2023-05-29T03:00:53.656Z,3.40
2023-05-29T03:03:20.385Z,3.93
2023-05-29T03:05:47.900Z,3.42
2023-05-29T03:08:14.954Z,5.13
2023-05-29T03:10:44.852Z,3.00
2023-05-29T03:13:11.644Z,4.10
2023-05-29T03:15:49.736Z,5.13
2023-05-29T03:18:17.535Z,3.77
2023-05-29T03:20:44.208Z,3.80
2023-05-29T03:23:11.422Z,5.63
2023-05-29T03:28:04.689Z,4.90
2023-05-29T03:30:32.161Z,3.97
2023-05-29T03:33:04.323Z,3.57
2023-05-29T03:35:49.576Z,3.70
2023-05-29T03:38:16.221Z,3.75
2023-05-29T03:40:42.972Z,4.25
2023-05-29T03:43:09.763Z,3.92
2023-05-29T03:45:36.355Z,3.13
2023-05-29T03:48:03.180Z,3.80
2023-05-29T03:50:30.617Z,3.70
2023-05-29T03:52:57.276Z,3.83
2023-05-29T03:55:24.078Z,3.42
2023-05-29T03:57:50.870Z,4.50
2023-05-29T04:00:17.772Z,3.78
2023-05-29T04:02:49.510Z,3.63
2023-05-29T04:05:16.403Z,4.53
2023-05-29T04:07:43.037Z,3.90
2023-05-29T04:10:10.269Z,3.38
2023-05-29T04:15:04.162Z,4.10
2023-05-29T04:17:30.997Z,4.20
2023-05-29T04:19:58.341Z,4.47
2023-05-29T04:22:25.359Z,4.32
2023-05-29T04:24:52.002Z,3.88
2023-05-29T04:27:19.049Z,3.83
2023-05-29T04:32:14.255Z,4.55
2023-05-29T04:34:41.076Z,5.53
2023-05-29T04:37:08.480Z,4.03
2023-05-29T04:39:35.176Z,4.78
2023-05-29T04:42:02.007Z,4.10
2023-05-29T04:44:30.204Z,4.45
2023-05-29T04:46:59.719Z,4.43
2023-05-29T04:49:26.368Z,3.60
2023-05-29T04:51:54.623Z,4.32
2023-05-29T04:54:23.445Z,3.03
2023-05-29T04:56:53.396Z,4.22
2023-05-29T04:59:24.102Z,3.95
2023-05-29T05:01:51.290Z,3.25
2023-05-29T05:04:18.950Z,3.38
2023-05-29T05:06:45.971Z,3.13
2023-05-29T05:09:15.023Z,3.38
2023-05-29T05:11:42.518Z,3.95
2023-05-29T05:16:36.452Z,5.25
2023-05-29T05:19:04.016Z,3.60
2023-05-29T05:21:33.988Z,3.45
2023-05-29T05:24:02.913Z,3.72
2023-05-29T05:26:31.428Z,4.15
2023-05-29T05:28:58.221Z,4.10
2023-05-29T05:31:28.121Z,3.78
2023-05-29T05:33:54.820Z,3.90
2023-05-29T05:36:22.354Z,4.38
2023-05-29T05:38:54.961Z,5.10
2023-05-29T05:41:22.634Z,4.65
2023-05-29T05:43:50.859Z,4.85
2023-05-29T05:46:26.624Z,4.50
2023-05-29T05:48:58.134Z,4.90
2023-05-29T05:51:25.752Z,4.88
2023-05-29T05:53:52.652Z,5.20
2023-05-29T05:56:20.005Z,4.43
2023-05-29T05:58:46.873Z,3.80
2023-05-29T06:01:14.026Z,4.40
2023-05-29T06:06:11.194Z,3.42
2023-05-29T06:08:42.588Z,5.78
2023-05-29T06:11:09.623Z,4.78
2023-05-29T06:13:38.343Z,4.30
2023-05-29T06:16:09.410Z,4.47
2023-05-29T06:21:03.966Z,3.95
2023-05-29T06:23:31.166Z,3.83
2023-05-29T06:25:57.831Z,4.53
2023-05-29T06:28:25.135Z,5.63
2023-05-29T06:30:52.102Z,4.47
2023-05-29T06:35:46.804Z,5.60
2023-05-29T06:38:13.446Z,5.80
2023-05-29T06:40:40.300Z,4.50
2023-05-29T06:43:07.132Z,5.10
2023-05-29T06:45:47.887Z,4.55
2023-05-29T06:48:14.554Z,4.95
2023-05-29T06:50:42.527Z,5.32
2023-05-29T06:53:29.468Z,4.07
2023-05-29T06:55:57.121Z,4.30
2023-05-29T06:58:23.929Z,4.90
2023-05-29T07:00:51.060Z,5.45
2023-05-29T07:03:47.906Z,4.43
2023-05-29T07:06:14.732Z,4.95
2023-05-29T07:08:41.677Z,5.00
2023-05-29T07:11:08.287Z,4.38
2023-05-29T07:13:35.107Z,4.50
2023-05-29T07:16:10.378Z,5.22
2023-05-29T07:18:48.976Z,3.80
2023-05-29T07:21:18.353Z,4.25
2023-05-29T07:23:45.026Z,5.70
2023-05-29T07:26:14.168Z,4.05
2023-05-29T07:28:41.034Z,3.85
2023-05-29T07:31:08.922Z,4.32
2023-05-29T07:33:35.994Z,4.90
2023-05-29T07:36:03.015Z,5.88
2023-05-29T07:38:29.934Z,3.85
2023-05-29T07:40:58.860Z,3.65
2023-05-29T07:43:37.228Z,3.75
2023-05-29T07:46:07.238Z,3.95
2023-05-29T07:48:35.631Z,4.63
2023-05-29T07:51:03.697Z,3.67
2023-05-29T07:53:34.865Z,4.38
2023-05-29T07:58:29.578Z,4.57
2023-05-29T08:00:56.625Z,6.22
2023-05-29T08:06:06.708Z,4.15
2023-05-29T08:08:34.898Z,4.47
2023-05-29T08:11:01.844Z,4.35
2023-05-29T08:13:31.914Z,4.28
2023-05-29T08:15:59.600Z,3.50
2023-05-29T08:18:27.354Z,4.15
2023-05-29T08:20:54.281Z,4.20
2023-05-29T08:23:21.818Z,3.83
2023-05-29T08:25:48.958Z,5.55
2023-05-29T08:30:42.877Z,4.57
2023-05-29T08:33:09.914Z,4.18
2023-05-29T08:35:37.525Z,4.40
2023-05-29T08:38:04.137Z,4.63
2023-05-29T08:40:31.258Z,3.67
2023-05-29T08:45:26.350Z,4.47
2023-05-29T08:47:55.215Z,3.30
2023-05-29T08:50:22.354Z,3.42
2023-05-29T08:52:49.105Z,3.45
2023-05-29T08:55:15.978Z,4.25
2023-05-29T08:57:44.368Z,4.93
2023-05-29T09:00:16.472Z,5.05
2023-05-29T09:02:47.161Z,4.03
2023-05-29T09:05:14.367Z,4.97
2023-05-29T09:10:12.805Z,3.83
2023-05-29T09:12:40.799Z,5.63
2023-05-29T09:15:21.802Z,4.55
2023-05-29T09:17:53.392Z,3.90
2023-05-29T09:20:24.778Z,4.78
2023-05-29T09:22:55.277Z,4.20
2023-05-29T09:25:24.917Z,4.50
2023-05-29T09:27:54.149Z,3.65
2023-05-29T09:30:36.253Z,4.35
2023-05-29T09:33:04.278Z,5.57
2023-05-29T09:35:44.790Z,3.38
2023-05-29T09:38:24.780Z,4.18
2023-05-29T09:41:06.997Z,3.58
2023-05-29T09:43:34.938Z,4.80
2023-05-29T09:46:02.804Z,3.30
2023-05-29T09:48:31.430Z,4.15
2023-05-29T09:50:59.436Z,3.10
2023-05-29T09:53:27.410Z,4.28
2023-05-29T09:55:55.822Z,4.70
2023-05-29T09:58:23.823Z,3.50
2023-05-29T10:00:52.790Z,4.18
2023-05-29T10:03:22.467Z,2.65
2023-05-29T10:05:58.028Z,3.88
2023-05-29T10:08:26.988Z,3.03
2023-05-29T10:11:00.320Z,4.97
2023-05-29T10:13:30.333Z,3.85
2023-05-29T10:15:59.191Z,3.20
2023-05-29T10:18:33.363Z,3.95
2023-05-29T10:21:02.739Z,3.58
2023-05-29T10:23:31.602Z,3.58
2023-05-29T10:26:06.399Z,3.58
2023-05-29T10:28:34.615Z,3.80
2023-05-29T10:31:11.843Z,3.72
2023-05-29T10:33:46.077Z,3.05
2023-05-29T10:36:19.953Z,3.58
2023-05-29T10:38:47.893Z,2.88
2023-05-29T10:41:29.999Z,3.05
2023-05-29T10:44:01.127Z,3.40
2023-05-29T10:47:00.364Z,2.85
2023-05-29T10:49:27.600Z,3.30
2023-05-29T10:54:25.246Z,3.20
2023-05-29T10:57:02.153Z,2.92
2023-05-29T10:59:29.529Z,3.53
2023-05-29T11:01:58.545Z,2.75
2023-05-29T11:04:29.095Z,2.80
2023-05-29T11:06:56.188Z,2.90
2023-05-29T11:12:11.761Z,2.95
2023-05-29T11:14:48.879Z,2.80
2023-05-29T11:17:44.777Z,3.28
2023-05-29T11:20:38.700Z,2.38
2023-05-29T11:23:13.664Z,3.45
2023-05-29T11:25:40.284Z,3.70
2023-05-29T11:28:11.658Z,3.70
2023-05-29T11:30:45.843Z,3.95
2023-05-29T11:33:29.708Z,3.10
2023-05-29T11:36:01.837Z,3.65
2023-05-29T11:38:29.640Z,2.67
2023-05-29T11:40:57.032Z,3.10
2023-05-29T11:43:24.056Z,2.78
2023-05-29T11:45:50.713Z,2.70
2023-05-29T11:48:17.590Z,3.08
2023-05-29T11:50:47.266Z,2.63
2023-05-29T11:53:13.912Z,3.83
2023-05-29T11:55:40.913Z,3.55
2023-05-29T11:58:07.652Z,4.10
2023-05-29T12:00:36.945Z,3.47
2023-05-29T12:03:05.309Z,2.95
2023-05-29T12:05:54.477Z,4.22
2023-05-29T12:08:26.351Z,3.70
2023-05-29T12:10:54.093Z,2.75
2023-05-29T12:13:21.380Z,2.47
2023-05-29T12:15:50.329Z,2.78
2023-05-29T12:18:17.214Z,3.15
2023-05-29T12:20:43.852Z,2.80
2023-05-29T12:23:13.244Z,2.80
2023-05-29T12:25:40.324Z,3.10
2023-05-29T12:28:07.195Z,2.97
2023-05-29T12:30:39.301Z,2.95
2023-05-29T12:33:07.637Z,2.50
2023-05-29T12:35:34.511Z,2.45
2023-05-29T12:38:02.231Z,3.08
2023-05-29T12:40:37.752Z,2.83
2023-05-29T12:43:06.974Z,3.00
2023-05-29T12:45:35.091Z,2.30
2023-05-29T12:48:04.593Z,2.75
2023-05-29T12:50:33.303Z,2.88
2023-05-29T12:53:05.413Z,3.75
2023-05-29T12:55:39.742Z,2.35
2023-05-29T12:58:11.353Z,3.00
2023-05-29T13:00:44.538Z,2.83
2023-05-29T13:03:12.465Z,2.75
2023-05-29T13:05:39.894Z,3.42
2023-05-29T13:08:08.853Z,2.60
2023-05-29T13:10:36.021Z,2.95
2023-05-29T13:15:29.742Z,3.13
2023-05-29T13:17:56.660Z,2.60
2023-05-29T13:22:50.159Z,3.40
2023-05-29T13:25:18.400Z,3.20
2023-05-29T13:27:46.863Z,2.72
2023-05-29T13:30:14.960Z,2.65
2023-05-29T13:32:42.915Z,4.05
2023-05-29T13:35:09.678Z,3.67
2023-05-29T13:37:40.167Z,3.00
2023-05-29T13:40:10.311Z,3.00
2023-05-29T13:42:39.449Z,3.05
2023-05-29T13:45:08.350Z,2.70
2023-05-29T13:47:36.109Z,2.50
2023-05-29T13:50:03.678Z,2.63
2023-05-29T13:52:30.432Z,2.83
2023-05-29T13:54:59.071Z,3.38
2023-05-29T13:57:25.765Z,3.47
2023-05-29T13:59:52.345Z,3.08
2023-05-29T14:02:19.228Z,2.60
2023-05-29T14:04:45.808Z,2.90
2023-05-29T14:07:12.423Z,2.78
2023-05-29T14:09:39.157Z,2.33
2023-05-29T14:12:06.798Z,2.90
2023-05-29T14:14:34.825Z,3.72
2023-05-29T14:17:01.822Z,2.70
2023-05-29T14:21:54.872Z,2.72
2023-05-29T14:24:21.483Z,2.53
2023-05-29T14:26:48.535Z,2.83
2023-05-29T14:29:16.049Z,2.53
2023-05-29T14:31:44.816Z,2.63
2023-05-29T14:34:12.721Z,3.05
2023-05-29T14:36:39.515Z,3.78
2023-05-29T14:39:06.908Z,2.33
2023-05-29T14:41:35.974Z,2.67
2023-05-29T14:44:02.611Z,2.30
2023-05-29T14:46:32.614Z,3.05
2023-05-29T14:49:02.692Z,3.80
2023-05-29T14:51:29.575Z,2.88
2023-05-29T14:53:56.410Z,3.38
2023-05-29T14:56:23.146Z,2.92
2023-05-29T14:58:49.996Z,2.67
2023-05-29T15:01:18.345Z,2.72
2023-05-29T15:03:46.500Z,2.75
2023-05-29T15:06:13.690Z,3.50
2023-05-29T15:11:08.758Z,3.78
2023-05-29T15:13:35.355Z,2.70
2023-05-29T15:16:04.159Z,2.70
2023-05-29T15:18:31.603Z,3.45
2023-05-29T15:20:58.890Z,3.47
2023-05-29T15:23:28.685Z,2.78
2023-05-29T15:25:55.873Z,3.63
2023-05-29T15:28:22.848Z,3.85
2023-05-29T15:30:49.876Z,3.50
2023-05-29T15:33:16.634Z,3.35
2023-05-29T15:35:43.786Z,3.35
2023-05-29T15:38:13.628Z,3.63
2023-05-29T15:40:44.079Z,3.38
2023-05-29T15:43:10.921Z,3.47
2023-05-29T15:45:38.296Z,3.25
2023-05-29T15:48:05.706Z,2.97
2023-05-29T15:50:32.777Z,2.65
2023-05-29T15:55:26.063Z,4.05
2023-05-29T15:57:52.834Z,4.10
2023-05-29T16:00:19.735Z,3.63
2023-05-29T16:02:46.357Z,3.55
2023-05-29T16:05:13.353Z,3.17
2023-05-29T16:07:40.580Z,3.17
2023-05-29T16:10:07.640Z,4.40
2023-05-29T16:15:01.700Z,3.92
2023-05-29T16:17:28.908Z,3.88
2023-05-29T16:19:57.112Z,3.90
2023-05-29T16:22:39.950Z,3.58
2023-05-29T16:25:09.559Z,3.30
2023-05-29T16:27:36.844Z,7.05
2023-05-29T16:32:31.075Z,4.30
2023-05-29T16:35:01.086Z,3.50
2023-05-29T16:37:28.227Z,5.55
2023-05-29T16:42:24.008Z,3.90
2023-05-29T16:44:53.114Z,3.63
2023-05-29T16:47:20.638Z,4.30
2023-05-29T16:52:20.343Z,3.00
2023-05-29T16:54:48.606Z,3.80
2023-05-29T16:57:15.815Z,4.07
2023-05-29T17:02:08.989Z,3.80
2023-05-29T17:04:37.002Z,3.55
2023-05-29T17:07:04.746Z,3.80
2023-05-29T17:09:31.917Z,3.78
2023-05-29T17:11:58.926Z,3.55
2023-05-29T17:16:52.511Z,3.47
2023-05-29T17:19:19.575Z,3.60
2023-05-29T17:24:17.695Z,4.00
2023-05-29T17:26:44.494Z,5.65
2023-05-29T17:29:12.322Z,2.85
2023-05-29T17:31:39.999Z,3.97
2023-05-29T17:34:06.658Z,3.08
2023-05-29T17:36:33.761Z,3.20
2023-05-29T17:41:27.983Z,3.80
2023-05-29T17:43:55.115Z,3.45
2023-05-29T17:46:22.643Z,3.95
2023-05-29T17:48:49.520Z,3.72
2023-05-29T17:51:17.171Z,2.70
2023-05-29T17:53:44.500Z,3.67
2023-05-29T17:56:12.180Z,2.97
2023-05-29T17:58:39.025Z,3.53
2023-05-29T18:01:05.719Z,2.30
2023-05-29T18:03:32.426Z,2.67
2023-05-29T18:05:59.152Z,3.15
2023-05-29T18:08:28.104Z,3.72
2023-05-29T18:10:54.745Z,2.47
2023-05-29T18:13:21.377Z,2.95
2023-05-29T18:15:48.268Z,3.05
2023-05-29T18:18:15.244Z,3.20
2023-05-29T18:20:42.074Z,3.10
2023-05-29T18:23:08.972Z,2.78
2023-05-29T18:25:36.313Z,2.80
2023-05-29T18:28:04.437Z,2.83
2023-05-29T18:30:31.703Z,2.50
2023-05-29T18:33:01.845Z,3.33
2023-05-29T18:35:28.858Z,3.15
2023-05-29T18:37:55.456Z,2.38
2023-05-29T18:40:22.071Z,2.55
2023-05-29T18:42:48.731Z,2.05
2023-05-29T18:45:15.487Z,4.78
2023-05-29T18:47:44.531Z,2.72
2023-05-29T18:50:13.116Z,2.67
2023-05-29T18:52:40.890Z,2.60
2023-05-29T18:55:08.062Z,3.10
2023-05-29T19:00:01.115Z,2.78
2023-05-29T19:02:28.052Z,2.50
2023-05-29T19:04:54.962Z,3.17
2023-05-29T19:07:21.544Z,3.35
2023-05-29T19:09:48.706Z,3.08
2023-05-29T19:14:41.846Z,2.35
2023-05-29T19:17:10.706Z,3.10
2023-05-29T19:19:37.420Z,2.70
2023-05-29T19:22:04.894Z,3.00
2023-05-29T19:24:31.616Z,3.45
2023-05-29T19:26:58.316Z,3.40
2023-05-29T19:29:25.041Z,3.78
2023-05-29T19:31:51.711Z,2.90
2023-05-29T19:34:18.630Z,3.47
2023-05-29T19:36:45.523Z,3.92
2023-05-29T19:39:12.533Z,3.88
2023-05-29T19:41:41.681Z,3.67
2023-05-29T19:44:09.215Z,4.07
2023-05-29T19:46:39.875Z,5.55
2023-05-29T19:49:06.793Z,3.78
2023-05-29T19:51:34.217Z,4.90
2023-05-29T19:54:01.283Z,3.47
2023-05-29T19:56:28.463Z,4.13
2023-05-29T20:01:22.314Z,3.88
2023-05-29T20:03:49.200Z,4.22
2023-05-29T20:06:16.065Z,4.82
2023-05-29T20:08:42.678Z,4.35
2023-05-29T20:11:09.334Z,4.18
2023-05-29T20:13:35.953Z,3.97
2023-05-29T20:16:02.732Z,4.05
2023-05-29T20:18:29.363Z,3.65
2023-05-29T20:20:56.211Z,4.45
2023-05-29T20:23:23.555Z,4.82
2023-05-29T20:25:51.166Z,4.13
2023-05-29T20:28:18.012Z,4.40
2023-05-29T20:30:44.686Z,3.80
2023-05-29T20:33:14.114Z,4.13
2023-05-29T20:35:42.614Z,4.93
2023-05-29T20:38:09.222Z,5.05
2023-05-29T20:40:37.228Z,4.53
2023-05-29T20:43:07.076Z,4.05
2023-05-29T20:45:34.285Z,4.60
2023-05-29T20:50:27.621Z,4.53
2023-05-29T20:52:54.189Z,4.38
2023-05-29T20:55:21.036Z,4.88
2023-05-29T20:57:47.679Z,5.50
2023-05-29T21:00:14.584Z,4.22
2023-05-29T21:02:41.390Z,5.65
2023-05-29T21:05:09.402Z,3.85
2023-05-29T21:07:36.969Z,4.50
2023-05-29T21:10:08.071Z,4.88
2023-05-29T21:12:35.987Z,5.50
2023-05-29T21:15:03.674Z,5.10
2023-05-29T21:17:32.872Z,4.93
2023-05-29T21:20:02.592Z,4.70
2023-05-29T21:22:30.549Z,4.32
2023-05-29T21:25:00.527Z,5.05
2023-05-29T21:27:28.229Z,4.65
2023-05-29T21:29:58.585Z,5.82
2023-05-29T21:32:27.426Z,5.43
2023-05-29T21:34:54.987Z,4.95
2023-05-29T21:37:23.795Z,5.43
2023-05-29T21:39:51.334Z,4.50
2023-05-29T21:42:18.552Z,4.25
2023-05-29T21:47:12.387Z,5.97
2023-05-29T21:49:39.328Z,5.57
2023-05-29T21:52:06.328Z,4.38
2023-05-29T21:54:33.125Z,5.63
2023-05-29T21:56:59.841Z,4.68
2023-05-29T21:59:26.412Z,4.55
2023-05-29T22:01:53.255Z,5.22
2023-05-29T22:04:22.834Z,5.22
2023-05-29T22:06:49.618Z,6.75
2023-05-29T22:09:16.598Z,5.25
2023-05-29T22:11:44.400Z,5.90
2023-05-29T22:14:11.212Z,5.13
2023-05-29T22:16:37.988Z,4.25
2023-05-29T22:19:06.621Z,5.40
2023-05-29T22:21:36.913Z,5.22
2023-05-29T22:24:04.449Z,4.88
2023-05-29T22:26:32.166Z,6.68
2023-05-29T22:28:58.888Z,4.78
2023-05-29T22:31:25.844Z,5.68
2023-05-29T22:36:21.835Z,5.82
2023-05-29T22:38:48.808Z,5.95
2023-05-29T22:41:15.487Z,4.90
2023-05-29T22:43:42.876Z,5.43
2023-05-29T22:46:09.833Z,5.40
2023-05-29T22:48:37.621Z,6.70
2023-05-29T22:51:05.539Z,5.70
2023-05-29T22:53:34.030Z,5.35
2023-05-29T22:56:01.511Z,5.80
2023-05-29T23:00:54.928Z,6.05
2023-05-29T23:03:22.031Z,6.55
2023-05-29T23:05:49.948Z,6.10
2023-05-29T23:08:16.766Z,4.93
2023-05-29T23:10:43.648Z,5.40
2023-05-29T23:13:11.864Z,5.00
2023-05-29T23:15:38.856Z,5.22
2023-05-29T23:18:05.789Z,4.97
2023-05-29T23:20:32.443Z,4.85
2023-05-29T23:22:59.075Z,4.80
2023-05-29T23:25:25.656Z,5.60
2023-05-29T23:27:52.316Z,5.57
2023-05-29T23:30:18.958Z,5.07
2023-05-29T23:32:45.755Z,6.18
2023-05-29T23:35:12.823Z,5.32
2023-05-29T23:37:39.562Z,5.85
2023-05-29T23:40:06.898Z,5.10
2023-05-29T23:42:34.902Z,5.28
2023-05-29T23:45:01.999Z,5.50
2023-05-29T23:47:28.589Z,5.25
2023-05-29T23:49:55.128Z,5.97
2023-05-29T23:52:22.706Z,5.68
2023-05-29T23:54:49.391Z,5.75
2023-05-29T23:57:16.064Z,5.15
2023-05-29T23:59:42.676Z,5.22
